sensor_id;sensor_type;location;lat;lon;timestamp;P1;durP1;ratioP1;P2;durP2;ratioP2
60851;SDS011;48553;50.766;2.900;2023-11-19T00:01:16;26.13;;;4.03;;
60851;SDS011;48553;50.766;2.900;2023-11-19T00:04:16;19.75;;;3.35;;
60851;SDS011;48553;50.766;2.900;2023-11-19T00:07:17;27.33;;;4.28;;
60851;SDS011;48553;50.766;2.900;2023-11-19T00:10:17;26.58;;;4.07;;
60851;SDS011;48553;50.766;2.900;2023-11-19T00:13:21;23.05;;;4.40;;
60851;SDS011;48553;50.766;2.900;2023-11-19T00:16:23;30.30;;;3.75;;
60851;SDS011;48553;50.766;2.900;2023-11-19T00:19:23;25.45;;;4.28;;
60851;SDS011;48553;50.766;2.900;2023-11-19T00:22:24;28.60;;;4.10;;
60851;SDS011;48553;50.766;2.900;2023-11-19T00:25:25;29.60;;;4.18;;
60851;SDS011;48553;50.766;2.900;2023-11-19T00:28:26;23.88;;;4.40;;
60851;SDS011;48553;50.766;2.900;2023-11-19T00:31:26;25.65;;;4.22;;
60851;SDS011;48553;50.766;2.900;2023-11-19T00:34:27;20.75;;;3.63;;
60851;SDS011;48553;50.766;2.900;2023-11-19T00:37:28;30.63;;;4.13;;
60851;SDS011;48553;50.766;2.900;2023-11-19T00:40:28;25.83;;;4.35;;
60851;SDS011;48553;50.766;2.900;2023-11-19T00:43:29;25.88;;;3.92;;
60851;SDS011;48553;50.766;2.900;2023-11-19T00:46:29;23.60;;;4.18;;
60851;SDS011;48553;50.766;2.900;2023-11-19T00:49:31;21.58;;;3.90;;
60851;SDS011;48553;50.766;2.900;2023-11-19T00:52:32;27.33;;;4.32;;
60851;SDS011;48553;50.766;2.900;2023-11-19T00:55:33;27.13;;;4.00;;
60851;SDS011;48553;50.766;2.900;2023-11-19T00:58:33;22.65;;;3.97;;
60851;SDS011;48553;50.766;2.900;2023-11-19T01:01:34;34.13;;;4.68;;
60851;SDS011;48553;50.766;2.900;2023-11-19T01:04:34;34.92;;;4.60;;
60851;SDS011;48553;50.766;2.900;2023-11-19T01:07:35;29.40;;;4.30;;
60851;SDS011;48553;50.766;2.900;2023-11-19T01:10:38;33.00;;;4.57;;
60851;SDS011;48553;50.766;2.900;2023-11-19T01:13:39;25.42;;;3.95;;
60851;SDS011;48553;50.766;2.900;2023-11-19T01:16:39;34.22;;;4.20;;
60851;SDS011;48553;50.766;2.900;2023-11-19T01:19:40;25.38;;;4.20;;
60851;SDS011;48553;50.766;2.900;2023-11-19T01:22:40;27.42;;;4.45;;
60851;SDS011;48553;50.766;2.900;2023-11-19T01:25:41;25.02;;;4.20;;
60851;SDS011;48553;50.766;2.900;2023-11-19T01:28:42;29.05;;;3.58;;
60851;SDS011;48553;50.766;2.900;2023-11-19T01:31:46;28.70;;;4.15;;
60851;SDS011;48553;50.766;2.900;2023-11-19T01:34:47;35.58;;;4.63;;
60851;SDS011;48553;50.766;2.900;2023-11-19T01:37:47;33.55;;;4.78;;
60851;SDS011;48553;50.766;2.900;2023-11-19T01:40:48;28.02;;;4.55;;
60851;SDS011;48553;50.766;2.900;2023-11-19T01:43:48;31.23;;;4.47;;
60851;SDS011;48553;50.766;2.900;2023-11-19T01:46:49;29.63;;;4.35;;
60851;SDS011;48553;50.766;2.900;2023-11-19T01:49:50;21.48;;;4.03;;
60851;SDS011;48553;50.766;2.900;2023-11-19T01:52:54;38.30;;;4.90;;
60851;SDS011;48553;50.766;2.900;2023-11-19T01:55:57;31.63;;;4.43;;
60851;SDS011;48553;50.766;2.900;2023-11-19T01:58:58;41.90;;;4.85;;
60851;SDS011;48553;50.766;2.900;2023-11-19T02:01:59;30.73;;;4.25;;
60851;SDS011;48553;50.766;2.900;2023-11-19T02:05:00;32.42;;;4.47;;
60851;SDS011;48553;50.766;2.900;2023-11-19T02:08:01;31.92;;;4.43;;
60851;SDS011;48553;50.766;2.900;2023-11-19T02:11:01;32.03;;;4.50;;
60851;SDS011;48553;50.766;2.900;2023-11-19T02:14:02;35.00;;;4.32;;
60851;SDS011;48553;50.766;2.900;2023-11-19T02:17:04;36.50;;;4.20;;
60851;SDS011;48553;50.766;2.900;2023-11-19T02:20:05;25.20;;;4.18;;
60851;SDS011;48553;50.766;2.900;2023-11-19T02:23:12;30.90;;;4.03;;
60851;SDS011;48553;50.766;2.900;2023-11-19T02:26:18;34.63;;;4.55;;
60851;SDS011;48553;50.766;2.900;2023-11-19T02:29:26;30.00;;;4.22;;
60851;SDS011;48553;50.766;2.900;2023-11-19T02:32:27;26.92;;;4.10;;
60851;SDS011;48553;50.766;2.900;2023-11-19T02:35:28;32.20;;;4.20;;
60851;SDS011;48553;50.766;2.900;2023-11-19T02:38:31;35.63;;;4.47;;
60851;SDS011;48553;50.766;2.900;2023-11-19T02:41:31;39.33;;;4.38;;
60851;SDS011;48553;50.766;2.900;2023-11-19T02:44:32;37.25;;;3.90;;
60851;SDS011;48553;50.766;2.900;2023-11-19T02:47:33;31.80;;;4.60;;
60851;SDS011;48553;50.766;2.900;2023-11-19T02:50:33;31.45;;;4.43;;
60851;SDS011;48553;50.766;2.900;2023-11-19T02:53:34;37.33;;;4.50;;
60851;SDS011;48553;50.766;2.900;2023-11-19T02:56:34;26.67;;;4.30;;
60851;SDS011;48553;50.766;2.900;2023-11-19T02:59:37;28.60;;;4.20;;
60851;SDS011;48553;50.766;2.900;2023-11-19T03:02:40;31.30;;;3.83;;
60851;SDS011;48553;50.766;2.900;2023-11-19T03:05:49;23.52;;;3.67;;
60851;SDS011;48553;50.766;2.900;2023-11-19T03:08:49;27.52;;;4.03;;
60851;SDS011;48553;50.766;2.900;2023-11-19T03:11:50;35.85;;;4.65;;
60851;SDS011;48553;50.766;2.900;2023-11-19T03:14:50;29.30;;;4.55;;
60851;SDS011;48553;50.766;2.900;2023-11-19T03:17:50;24.73;;;3.60;;
60851;SDS011;48553;50.766;2.900;2023-11-19T03:20:51;30.73;;;4.45;;
60851;SDS011;48553;50.766;2.900;2023-11-19T03:23:52;31.27;;;4.63;;
60851;SDS011;48553;50.766;2.900;2023-11-19T03:26:52;32.95;;;4.25;;
60851;SDS011;48553;50.766;2.900;2023-11-19T03:29:53;35.03;;;4.32;;
60851;SDS011;48553;50.766;2.900;2023-11-19T03:32:54;38.75;;;5.10;;
60851;SDS011;48553;50.766;2.900;2023-11-19T03:35:56;31.48;;;4.35;;
60851;SDS011;48553;50.766;2.900;2023-11-19T03:38:56;33.65;;;3.97;;
60851;SDS011;48553;50.766;2.900;2023-11-19T03:41:57;36.80;;;4.30;;
60851;SDS011;48553;50.766;2.900;2023-11-19T03:44:57;32.03;;;4.63;;
60851;SDS011;48553;50.766;2.900;2023-11-19T03:47:58;29.73;;;3.92;;
60851;SDS011;48553;50.766;2.900;2023-11-19T03:50:58;35.70;;;4.70;;
60851;SDS011;48553;50.766;2.900;2023-11-19T03:53:58;31.02;;;5.00;;
60851;SDS011;48553;50.766;2.900;2023-11-19T03:56:59;28.92;;;4.50;;
60851;SDS011;48553;50.766;2.900;2023-11-19T04:00:00;32.83;;;4.82;;
60851;SDS011;48553;50.766;2.900;2023-11-19T04:03:05;33.05;;;4.72;;
60851;SDS011;48553;50.766;2.900;2023-11-19T04:06:06;31.90;;;4.57;;
60851;SDS011;48553;50.766;2.900;2023-11-19T04:09:06;34.10;;;4.63;;
60851;SDS011;48553;50.766;2.900;2023-11-19T04:12:07;37.45;;;4.65;;
60851;SDS011;48553;50.766;2.900;2023-11-19T04:15:08;31.63;;;4.82;;
60851;SDS011;48553;50.766;2.900;2023-11-19T04:18:08;39.25;;;5.10;;
60851;SDS011;48553;50.766;2.900;2023-11-19T04:21:09;33.50;;;4.50;;
60851;SDS011;48553;50.766;2.900;2023-11-19T04:24:11;41.20;;;4.90;;
60851;SDS011;48553;50.766;2.900;2023-11-19T04:27:12;39.28;;;4.50;;
60851;SDS011;48553;50.766;2.900;2023-11-19T04:30:13;36.17;;;5.20;;
60851;SDS011;48553;50.766;2.900;2023-11-19T04:33:14;28.83;;;4.30;;
60851;SDS011;48553;50.766;2.900;2023-11-19T04:36:18;33.80;;;4.45;;
60851;SDS011;48553;50.766;2.900;2023-11-19T04:39:19;36.03;;;4.97;;
60851;SDS011;48553;50.766;2.900;2023-11-19T04:42:21;41.78;;;5.10;;
60851;SDS011;48553;50.766;2.900;2023-11-19T04:45:22;34.88;;;4.68;;
60851;SDS011;48553;50.766;2.900;2023-11-19T04:48:23;37.00;;;4.65;;
60851;SDS011;48553;50.766;2.900;2023-11-19T04:51:23;33.50;;;4.95;;
60851;SDS011;48553;50.766;2.900;2023-11-19T04:54:24;31.67;;;4.43;;
60851;SDS011;48553;50.766;2.900;2023-11-19T04:57:24;31.10;;;4.53;;
60851;SDS011;48553;50.766;2.900;2023-11-19T05:00:25;30.10;;;4.45;;
60851;SDS011;48553;50.766;2.900;2023-11-19T05:03:25;33.65;;;4.57;;
60851;SDS011;48553;50.766;2.900;2023-11-19T05:06:30;33.47;;;4.60;;
60851;SDS011;48553;50.766;2.900;2023-11-19T05:09:31;36.00;;;4.50;;
60851;SDS011;48553;50.766;2.900;2023-11-19T05:12:31;32.28;;;4.45;;
60851;SDS011;48553;50.766;2.900;2023-11-19T05:15:32;30.20;;;4.47;;
60851;SDS011;48553;50.766;2.900;2023-11-19T05:18:33;27.48;;;4.30;;
60851;SDS011;48553;50.766;2.900;2023-11-19T05:21:33;30.15;;;4.30;;
60851;SDS011;48553;50.766;2.900;2023-11-19T05:24:34;31.55;;;3.75;;
60851;SDS011;48553;50.766;2.900;2023-11-19T05:27:36;37.53;;;4.57;;
60851;SDS011;48553;50.766;2.900;2023-11-19T05:30:36;35.40;;;3.78;;
60851;SDS011;48553;50.766;2.900;2023-11-19T05:33:37;30.70;;;4.22;;
60851;SDS011;48553;50.766;2.900;2023-11-19T05:36:38;34.13;;;4.32;;
60851;SDS011;48553;50.766;2.900;2023-11-19T05:39:39;29.35;;;4.10;;
60851;SDS011;48553;50.766;2.900;2023-11-19T05:42:43;29.75;;;4.07;;
60851;SDS011;48553;50.766;2.900;2023-11-19T05:45:43;24.02;;;3.53;;
60851;SDS011;48553;50.766;2.900;2023-11-19T05:48:44;27.27;;;3.40;;
60851;SDS011;48553;50.766;2.900;2023-11-19T05:51:46;28.17;;;4.50;;
60851;SDS011;48553;50.766;2.900;2023-11-19T05:54:46;30.42;;;4.47;;
60851;SDS011;48553;50.766;2.900;2023-11-19T05:57:51;27.92;;;4.60;;
60851;SDS011;48553;50.766;2.900;2023-11-19T06:00:52;27.40;;;3.92;;
60851;SDS011;48553;50.766;2.900;2023-11-19T06:03:53;28.15;;;4.00;;
60851;SDS011;48553;50.766;2.900;2023-11-19T06:06:53;28.10;;;4.40;;
60851;SDS011;48553;50.766;2.900;2023-11-19T06:09:54;31.33;;;3.90;;
60851;SDS011;48553;50.766;2.900;2023-11-19T06:12:55;34.30;;;4.47;;
60851;SDS011;48553;50.766;2.900;2023-11-19T06:15:57;27.95;;;4.07;;
60851;SDS011;48553;50.766;2.900;2023-11-19T06:18:57;25.75;;;4.05;;
60851;SDS011;48553;50.766;2.900;2023-11-19T06:21:58;27.73;;;4.05;;
60851;SDS011;48553;50.766;2.900;2023-11-19T06:24:58;28.50;;;4.07;;
60851;SDS011;48553;50.766;2.900;2023-11-19T06:28:00;28.17;;;3.83;;
60851;SDS011;48553;50.766;2.900;2023-11-19T06:31:00;30.08;;;3.97;;
60851;SDS011;48553;50.766;2.900;2023-11-19T06:34:01;30.48;;;4.18;;
60851;SDS011;48553;50.766;2.900;2023-11-19T06:37:01;32.58;;;4.80;;
60851;SDS011;48553;50.766;2.900;2023-11-19T06:40:04;33.00;;;4.07;;
60851;SDS011;48553;50.766;2.900;2023-11-19T06:43:05;31.88;;;4.25;;
60851;SDS011;48553;50.766;2.900;2023-11-19T06:46:15;27.50;;;4.18;;
60851;SDS011;48553;50.766;2.900;2023-11-19T06:49:16;32.00;;;3.90;;
60851;SDS011;48553;50.766;2.900;2023-11-19T06:52:16;30.35;;;3.97;;
60851;SDS011;48553;50.766;2.900;2023-11-19T06:55:17;24.50;;;3.67;;
60851;SDS011;48553;50.766;2.900;2023-11-19T06:58:17;31.45;;;4.47;;
60851;SDS011;48553;50.766;2.900;2023-11-19T07:01:18;34.20;;;4.13;;
60851;SDS011;48553;50.766;2.900;2023-11-19T07:04:19;32.03;;;3.88;;
60851;SDS011;48553;50.766;2.900;2023-11-19T07:07:19;31.48;;;4.20;;
60851;SDS011;48553;50.766;2.900;2023-11-19T07:10:20;32.95;;;4.55;;
60851;SDS011;48553;50.766;2.900;2023-11-19T07:13:20;28.40;;;4.50;;
60851;SDS011;48553;50.766;2.900;2023-11-19T07:16:21;32.92;;;4.90;;
60851;SDS011;48553;50.766;2.900;2023-11-19T07:19:21;36.60;;;5.03;;
60851;SDS011;48553;50.766;2.900;2023-11-19T07:22:22;35.85;;;4.60;;
60851;SDS011;48553;50.766;2.900;2023-11-19T07:25:22;33.47;;;4.68;;
60851;SDS011;48553;50.766;2.900;2023-11-19T07:28:23;37.53;;;5.03;;
60851;SDS011;48553;50.766;2.900;2023-11-19T07:31:24;33.55;;;4.72;;
60851;SDS011;48553;50.766;2.900;2023-11-19T07:34:25;31.00;;;5.32;;
60851;SDS011;48553;50.766;2.900;2023-11-19T07:37:25;34.90;;;4.90;;
60851;SDS011;48553;50.766;2.900;2023-11-19T07:40:26;33.50;;;4.93;;
60851;SDS011;48553;50.766;2.900;2023-11-19T07:43:26;32.30;;;4.35;;
60851;SDS011;48553;50.766;2.900;2023-11-19T07:46:27;37.38;;;5.22;;
60851;SDS011;48553;50.766;2.900;2023-11-19T07:49:27;36.88;;;4.53;;
60851;SDS011;48553;50.766;2.900;2023-11-19T07:52:28;33.42;;;4.30;;
60851;SDS011;48553;50.766;2.900;2023-11-19T07:55:29;32.25;;;5.45;;
60851;SDS011;48553;50.766;2.900;2023-11-19T07:58:29;35.38;;;4.72;;
60851;SDS011;48553;50.766;2.900;2023-11-19T08:01:29;34.42;;;4.15;;
60851;SDS011;48553;50.766;2.900;2023-11-19T08:04:30;33.13;;;4.70;;
60851;SDS011;48553;50.766;2.900;2023-11-19T08:07:30;37.78;;;5.07;;
60851;SDS011;48553;50.766;2.900;2023-11-19T08:10:31;32.17;;;4.57;;
60851;SDS011;48553;50.766;2.900;2023-11-19T08:13:33;36.88;;;4.68;;
60851;SDS011;48553;50.766;2.900;2023-11-19T08:16:34;33.25;;;4.78;;
60851;SDS011;48553;50.766;2.900;2023-11-19T08:19:34;28.25;;;4.47;;
60851;SDS011;48553;50.766;2.900;2023-11-19T08:22:34;32.30;;;4.75;;
60851;SDS011;48553;50.766;2.900;2023-11-19T08:25:35;27.60;;;4.18;;
60851;SDS011;48553;50.766;2.900;2023-11-19T08:28:35;33.58;;;4.57;;
60851;SDS011;48553;50.766;2.900;2023-11-19T08:31:37;34.08;;;4.32;;
60851;SDS011;48553;50.766;2.900;2023-11-19T08:34:37;30.90;;;4.40;;
60851;SDS011;48553;50.766;2.900;2023-11-19T08:37:38;28.08;;;4.18;;
60851;SDS011;48553;50.766;2.900;2023-11-19T08:40:38;29.52;;;4.97;;
60851;SDS011;48553;50.766;2.900;2023-11-19T08:43:39;30.50;;;4.68;;
60851;SDS011;48553;50.766;2.900;2023-11-19T08:46:46;27.25;;;3.90;;
60851;SDS011;48553;50.766;2.900;2023-11-19T08:49:53;20.38;;;3.70;;
60851;SDS011;48553;50.766;2.900;2023-11-19T08:52:53;22.05;;;3.80;;
60851;SDS011;48553;50.766;2.900;2023-11-19T08:55:53;20.02;;;3.58;;
60851;SDS011;48553;50.766;2.900;2023-11-19T08:58:54;21.35;;;3.65;;
60851;SDS011;48553;50.766;2.900;2023-11-19T09:01:54;16.58;;;3.35;;
60851;SDS011;48553;50.766;2.900;2023-11-19T09:04:55;22.58;;;3.78;;
60851;SDS011;48553;50.766;2.900;2023-11-19T09:07:55;22.98;;;3.38;;
60851;SDS011;48553;50.766;2.900;2023-11-19T09:10:56;19.67;;;3.42;;
60851;SDS011;48553;50.766;2.900;2023-11-19T09:13:56;23.33;;;4.15;;
60851;SDS011;48553;50.766;2.900;2023-11-19T09:16:57;20.30;;;3.40;;
60851;SDS011;48553;50.766;2.900;2023-11-19T09:19:58;24.08;;;3.45;;
60851;SDS011;48553;50.766;2.900;2023-11-19T09:22:58;23.52;;;3.60;;
60851;SDS011;48553;50.766;2.900;2023-11-19T09:25:59;27.23;;;3.92;;
60851;SDS011;48553;50.766;2.900;2023-11-19T09:29:00;21.95;;;3.38;;
60851;SDS011;48553;50.766;2.900;2023-11-19T09:32:00;26.77;;;3.63;;
60851;SDS011;48553;50.766;2.900;2023-11-19T09:35:01;25.48;;;3.22;;
60851;SDS011;48553;50.766;2.900;2023-11-19T09:38:02;26.48;;;3.90;;
60851;SDS011;48553;50.766;2.900;2023-11-19T09:41:05;24.95;;;3.95;;
60851;SDS011;48553;50.766;2.900;2023-11-19T09:44:09;27.85;;;3.60;;
60851;SDS011;48553;50.766;2.900;2023-11-19T09:47:11;24.92;;;3.90;;
60851;SDS011;48553;50.766;2.900;2023-11-19T09:50:15;22.17;;;3.42;;
60851;SDS011;48553;50.766;2.900;2023-11-19T09:53:18;23.67;;;3.72;;
60851;SDS011;48553;50.766;2.900;2023-11-19T09:56:20;24.25;;;3.70;;
60851;SDS011;48553;50.766;2.900;2023-11-19T09:59:22;28.10;;;3.67;;
60851;SDS011;48553;50.766;2.900;2023-11-19T10:02:23;26.13;;;3.88;;
60851;SDS011;48553;50.766;2.900;2023-11-19T10:05:25;26.52;;;3.88;;
60851;SDS011;48553;50.766;2.900;2023-11-19T10:08:26;27.40;;;3.88;;
60851;SDS011;48553;50.766;2.900;2023-11-19T10:11:26;25.08;;;3.85;;
60851;SDS011;48553;50.766;2.900;2023-11-19T10:14:27;27.15;;;4.00;;
60851;SDS011;48553;50.766;2.900;2023-11-19T10:17:33;24.83;;;4.07;;
60851;SDS011;48553;50.766;2.900;2023-11-19T10:20:38;30.50;;;4.25;;
60851;SDS011;48553;50.766;2.900;2023-11-19T10:23:47;22.73;;;3.45;;
60851;SDS011;48553;50.766;2.900;2023-11-19T10:26:50;25.40;;;3.85;;
60851;SDS011;48553;50.766;2.900;2023-11-19T10:29:51;24.52;;;3.75;;
60851;SDS011;48553;50.766;2.900;2023-11-19T10:36:20;24.77;;;4.00;;
60851;SDS011;48553;50.766;2.900;2023-11-19T10:39:21;21.10;;;3.72;;
60851;SDS011;48553;50.766;2.900;2023-11-19T10:42:23;17.48;;;3.75;;
60851;SDS011;48553;50.766;2.900;2023-11-19T10:45:24;24.50;;;3.85;;
60851;SDS011;48553;50.766;2.900;2023-11-19T10:48:25;21.98;;;3.40;;
60851;SDS011;48553;50.766;2.900;2023-11-19T10:51:25;22.38;;;4.32;;
60851;SDS011;48553;50.766;2.900;2023-11-19T10:54:27;21.23;;;3.70;;
60851;SDS011;48553;50.766;2.900;2023-11-19T10:57:29;26.35;;;4.35;;
60851;SDS011;48553;50.766;2.900;2023-11-19T11:00:45;24.17;;;3.93;;
60851;SDS011;48553;50.766;2.900;2023-11-19T11:03:52;30.40;;;4.05;;
60851;SDS011;48553;50.766;2.900;2023-11-19T11:06:54;23.48;;;3.65;;
60851;SDS011;48553;50.766;2.900;2023-11-19T11:09:58;22.70;;;3.87;;
60851;SDS011;48553;50.766;2.900;2023-11-19T11:13:00;23.15;;;3.72;;
60851;SDS011;48553;50.766;2.900;2023-11-19T11:16:03;23.77;;;3.45;;
60851;SDS011;48553;50.766;2.900;2023-11-19T11:19:07;24.25;;;3.72;;
60851;SDS011;48553;50.766;2.900;2023-11-19T11:22:09;26.55;;;3.58;;
60851;SDS011;48553;50.766;2.900;2023-11-19T11:25:29;26.02;;;3.65;;
60851;SDS011;48553;50.766;2.900;2023-11-19T11:29:02;29.92;;;3.58;;
60851;SDS011;48553;50.766;2.900;2023-11-19T11:32:15;23.17;;;3.58;;
60851;SDS011;48553;50.766;2.900;2023-11-19T11:35:31;25.38;;;3.35;;
60851;SDS011;48553;50.766;2.900;2023-11-19T11:38:50;18.95;;;3.10;;
60851;SDS011;48553;50.766;2.900;2023-11-19T11:45:37;23.33;;;3.50;;
60851;SDS011;48553;50.766;2.900;2023-11-19T11:48:42;23.40;;;3.53;;
60851;SDS011;48553;50.766;2.900;2023-11-19T11:54:48;17.40;;;3.15;;
60851;SDS011;48553;50.766;2.900;2023-11-19T11:57:49;24.33;;;3.92;;
60851;SDS011;48553;50.766;2.900;2023-11-19T12:00:51;19.88;;;3.80;;
60851;SDS011;48553;50.766;2.900;2023-11-19T12:03:51;26.55;;;3.80;;
60851;SDS011;48553;50.766;2.900;2023-11-19T12:10:15;28.95;;;4.13;;
60851;SDS011;48553;50.766;2.900;2023-11-19T12:13:16;22.98;;;3.53;;
60851;SDS011;48553;50.766;2.900;2023-11-19T12:16:18;21.55;;;3.30;;
60851;SDS011;48553;50.766;2.900;2023-11-19T12:19:19;26.77;;;4.07;;
60851;SDS011;48553;50.766;2.900;2023-11-19T12:22:20;29.42;;;4.15;;
60851;SDS011;48553;50.766;2.900;2023-11-19T12:25:20;24.00;;;4.03;;
60851;SDS011;48553;50.766;2.900;2023-11-19T12:28:22;29.15;;;3.78;;
60851;SDS011;48553;50.766;2.900;2023-11-19T12:31:24;25.02;;;3.25;;
60851;SDS011;48553;50.766;2.900;2023-11-19T12:34:24;25.15;;;3.67;;
60851;SDS011;48553;50.766;2.900;2023-11-19T12:37:26;30.30;;;4.00;;
60851;SDS011;48553;50.766;2.900;2023-11-19T12:40:27;23.75;;;3.33;;
60851;SDS011;48553;50.766;2.900;2023-11-19T12:43:28;21.95;;;3.78;;
60851;SDS011;48553;50.766;2.900;2023-11-19T12:46:29;33.88;;;3.97;;
60851;SDS011;48553;50.766;2.900;2023-11-19T12:49:29;25.40;;;3.42;;
60851;SDS011;48553;50.766;2.900;2023-11-19T12:52:30;23.58;;;3.58;;
60851;SDS011;48553;50.766;2.900;2023-11-19T12:55:30;25.13;;;3.78;;
60851;SDS011;48553;50.766;2.900;2023-11-19T12:58:33;27.63;;;4.05;;
60851;SDS011;48553;50.766;2.900;2023-11-19T13:01:36;24.02;;;3.35;;
60851;SDS011;48553;50.766;2.900;2023-11-19T13:04:38;28.17;;;3.70;;
60851;SDS011;48553;50.766;2.900;2023-11-19T13:07:38;24.80;;;3.50;;
60851;SDS011;48553;50.766;2.900;2023-11-19T13:13:55;28.42;;;3.78;;
60851;SDS011;48553;50.766;2.900;2023-11-19T13:16:59;26.45;;;3.63;;
60851;SDS011;48553;50.766;2.900;2023-11-19T13:20:00;28.95;;;3.83;;
60851;SDS011;48553;50.766;2.900;2023-11-19T13:23:01;24.80;;;2.92;;
60851;SDS011;48553;50.766;2.900;2023-11-19T13:26:04;18.88;;;3.35;;
60851;SDS011;48553;50.766;2.900;2023-11-19T13:29:04;17.00;;;2.92;;
60851;SDS011;48553;50.766;2.900;2023-11-19T13:32:05;19.60;;;2.97;;
60851;SDS011;48553;50.766;2.900;2023-11-19T13:35:06;20.35;;;3.00;;
60851;SDS011;48553;50.766;2.900;2023-11-19T13:38:08;27.58;;;3.42;;
60851;SDS011;48553;50.766;2.900;2023-11-19T13:41:09;23.92;;;3.30;;
60851;SDS011;48553;50.766;2.900;2023-11-19T13:44:10;26.67;;;3.75;;
60851;SDS011;48553;50.766;2.900;2023-11-19T13:47:11;18.70;;;3.22;;
60851;SDS011;48553;50.766;2.900;2023-11-19T13:50:12;25.58;;;3.25;;
60851;SDS011;48553;50.766;2.900;2023-11-19T13:53:16;16.08;;;3.45;;
60851;SDS011;48553;50.766;2.900;2023-11-19T13:56:17;25.42;;;3.58;;
60851;SDS011;48553;50.766;2.900;2023-11-19T13:59:17;25.33;;;3.63;;
60851;SDS011;48553;50.766;2.900;2023-11-19T14:02:17;22.10;;;3.15;;
60851;SDS011;48553;50.766;2.900;2023-11-19T14:05:18;22.60;;;3.55;;
60851;SDS011;48553;50.766;2.900;2023-11-19T14:08:18;24.08;;;3.42;;
60851;SDS011;48553;50.766;2.900;2023-11-19T14:11:19;19.50;;;3.17;;
60851;SDS011;48553;50.766;2.900;2023-11-19T14:14:19;23.55;;;3.42;;
60851;SDS011;48553;50.766;2.900;2023-11-19T14:17:20;28.73;;;3.30;;
60851;SDS011;48553;50.766;2.900;2023-11-19T14:20:21;22.08;;;3.75;;
60851;SDS011;48553;50.766;2.900;2023-11-19T14:23:21;19.80;;;3.13;;
60851;SDS011;48553;50.766;2.900;2023-11-19T14:26:21;25.02;;;3.70;;
60851;SDS011;48553;50.766;2.900;2023-11-19T14:29:22;23.15;;;3.78;;
60851;SDS011;48553;50.766;2.900;2023-11-19T14:32:22;25.73;;;3.85;;
60851;SDS011;48553;50.766;2.900;2023-11-19T14:35:23;22.10;;;3.30;;
60851;SDS011;48553;50.766;2.900;2023-11-19T14:38:25;26.83;;;3.58;;
60851;SDS011;48553;50.766;2.900;2023-11-19T14:41:25;23.33;;;3.50;;
60851;SDS011;48553;50.766;2.900;2023-11-19T14:44:26;31.13;;;3.78;;
60851;SDS011;48553;50.766;2.900;2023-11-19T14:47:26;25.02;;;3.20;;
60851;SDS011;48553;50.766;2.900;2023-11-19T14:50:27;28.73;;;3.53;;
60851;SDS011;48553;50.766;2.900;2023-11-19T14:53:28;26.73;;;3.33;;
60851;SDS011;48553;50.766;2.900;2023-11-19T14:56:28;17.35;;;3.17;;
60851;SDS011;48553;50.766;2.900;2023-11-19T14:59:28;20.67;;;3.22;;
60851;SDS011;48553;50.766;2.900;2023-11-19T15:02:29;13.68;;;2.55;;
60851;SDS011;48553;50.766;2.900;2023-11-19T15:05:29;20.10;;;2.80;;
60851;SDS011;48553;50.766;2.900;2023-11-19T15:08:30;19.65;;;2.42;;
60851;SDS011;48553;50.766;2.900;2023-11-19T15:11:31;19.52;;;2.50;;
60851;SDS011;48553;50.766;2.900;2023-11-19T15:14:31;18.63;;;3.03;;
60851;SDS011;48553;50.766;2.900;2023-11-19T15:17:32;14.95;;;2.97;;
60851;SDS011;48553;50.766;2.900;2023-11-19T15:20:33;20.17;;;2.63;;
60851;SDS011;48553;50.766;2.900;2023-11-19T15:23:33;15.20;;;2.17;;
60851;SDS011;48553;50.766;2.900;2023-11-19T15:26:34;15.95;;;2.42;;
60851;SDS011;48553;50.766;2.900;2023-11-19T15:29:35;19.52;;;2.70;;
60851;SDS011;48553;50.766;2.900;2023-11-19T15:32:35;15.30;;;2.55;;
60851;SDS011;48553;50.766;2.900;2023-11-19T15:35:36;17.02;;;2.95;;
60851;SDS011;48553;50.766;2.900;2023-11-19T15:38:37;20.45;;;2.75;;
60851;SDS011;48553;50.766;2.900;2023-11-19T15:41:37;15.50;;;2.80;;
60851;SDS011;48553;50.766;2.900;2023-11-19T15:44:37;18.08;;;2.78;;
60851;SDS011;48553;50.766;2.900;2023-11-19T15:47:39;13.38;;;2.40;;
60851;SDS011;48553;50.766;2.900;2023-11-19T15:50:40;15.80;;;2.60;;
60851;SDS011;48553;50.766;2.900;2023-11-19T15:53:41;23.00;;;3.08;;
60851;SDS011;48553;50.766;2.900;2023-11-19T15:56:42;18.50;;;2.78;;
60851;SDS011;48553;50.766;2.900;2023-11-19T15:59:43;22.75;;;3.08;;
60851;SDS011;48553;50.766;2.900;2023-11-19T16:02:43;18.45;;;2.50;;
60851;SDS011;48553;50.766;2.900;2023-11-19T16:05:43;18.65;;;2.58;;
60851;SDS011;48553;50.766;2.900;2023-11-19T16:08:44;18.08;;;2.67;;
60851;SDS011;48553;50.766;2.900;2023-11-19T16:11:45;15.57;;;2.55;;
60851;SDS011;48553;50.766;2.900;2023-11-19T16:14:46;21.00;;;2.80;;
60851;SDS011;48553;50.766;2.900;2023-11-19T16:17:46;16.98;;;2.67;;
60851;SDS011;48553;50.766;2.900;2023-11-19T16:20:46;19.00;;;2.47;;
60851;SDS011;48553;50.766;2.900;2023-11-19T16:23:47;14.25;;;2.30;;
60851;SDS011;48553;50.766;2.900;2023-11-19T16:26:47;13.48;;;2.40;;
60851;SDS011;48553;50.766;2.900;2023-11-19T16:29:48;17.67;;;2.72;;
60851;SDS011;48553;50.766;2.900;2023-11-19T16:32:52;16.13;;;2.65;;
60851;SDS011;48553;50.766;2.900;2023-11-19T16:35:55;20.45;;;2.60;;
60851;SDS011;48553;50.766;2.900;2023-11-19T16:38:57;16.98;;;2.67;;
60851;SDS011;48553;50.766;2.900;2023-11-19T16:41:57;18.67;;;2.70;;
60851;SDS011;48553;50.766;2.900;2023-11-19T16:44:58;18.73;;;2.50;;
60851;SDS011;48553;50.766;2.900;2023-11-19T16:47:59;11.70;;;2.78;;
60851;SDS011;48553;50.766;2.900;2023-11-19T16:51:07;17.05;;;2.38;;
60851;SDS011;48553;50.766;2.900;2023-11-19T16:54:13;15.98;;;2.60;;
60851;SDS011;48553;50.766;2.900;2023-11-19T16:57:14;19.92;;;2.55;;
60851;SDS011;48553;50.766;2.900;2023-11-19T17:00:14;22.42;;;2.53;;
60851;SDS011;48553;50.766;2.900;2023-11-19T17:03:15;20.67;;;3.38;;
60851;SDS011;48553;50.766;2.900;2023-11-19T17:06:16;15.25;;;3.03;;
60851;SDS011;48553;50.766;2.900;2023-11-19T17:09:16;14.23;;;2.63;;
60851;SDS011;48553;50.766;2.900;2023-11-19T17:12:16;16.10;;;2.58;;
60851;SDS011;48553;50.766;2.900;2023-11-19T17:15:17;19.15;;;2.70;;
60851;SDS011;48553;50.766;2.900;2023-11-19T17:18:17;17.23;;;2.45;;
60851;SDS011;48553;50.766;2.900;2023-11-19T17:21:18;17.63;;;2.33;;
60851;SDS011;48553;50.766;2.900;2023-11-19T17:24:19;17.40;;;2.35;;
60851;SDS011;48553;50.766;2.900;2023-11-19T17:27:19;17.63;;;2.17;;
60851;SDS011;48553;50.766;2.900;2023-11-19T17:30:20;16.42;;;2.47;;
60851;SDS011;48553;50.766;2.900;2023-11-19T17:33:22;20.55;;;2.20;;
60851;SDS011;48553;50.766;2.900;2023-11-19T17:36:22;15.88;;;2.40;;
60851;SDS011;48553;50.766;2.900;2023-11-19T17:39:23;14.98;;;2.70;;
60851;SDS011;48553;50.766;2.900;2023-11-19T17:42:23;17.23;;;2.63;;
60851;SDS011;48553;50.766;2.900;2023-11-19T17:45:24;13.05;;;2.45;;
60851;SDS011;48553;50.766;2.900;2023-11-19T17:48:25;22.05;;;2.65;;
60851;SDS011;48553;50.766;2.900;2023-11-19T17:51:25;15.77;;;2.15;;
60851;SDS011;48553;50.766;2.900;2023-11-19T17:54:26;14.38;;;2.20;;
60851;SDS011;48553;50.766;2.900;2023-11-19T17:57:26;19.20;;;2.58;;
60851;SDS011;48553;50.766;2.900;2023-11-19T18:00:26;14.60;;;2.15;;
60851;SDS011;48553;50.766;2.900;2023-11-19T18:03:27;11.98;;;2.30;;
60851;SDS011;48553;50.766;2.900;2023-11-19T18:06:28;16.13;;;2.20;;
60851;SDS011;48553;50.766;2.900;2023-11-19T18:09:28;13.07;;;2.10;;
60851;SDS011;48553;50.766;2.900;2023-11-19T18:12:29;17.52;;;2.20;;